createdAt,value
2022-12-18T00:00:14.407Z,102869.94
2022-12-18T00:05:17.536Z,102867.91
2022-12-18T00:10:20.585Z,102883.91
2022-12-18T00:15:25.053Z,102861.25
2022-12-18T00:20:28.116Z,102827.25
2022-12-18T00:25:31.348Z,102835.69
2022-12-18T00:30:38.170Z,102840.13
2022-12-18T00:35:41.353Z,102821.94
2022-12-18T00:40:44.727Z,102823.19
2022-12-18T00:45:50.784Z,102811.94
2022-12-18T00:50:53.905Z,102824.94
2022-12-18T00:55:56.979Z,102833.41
2022-12-18T01:01:01.828Z,102855.81
2022-12-18T01:06:08.795Z,102860.19
2022-12-18T01:11:13.947Z,102851.72
2022-12-18T01:16:19.955Z,102860.53
2022-12-18T01:21:25.133Z,102856.88
2022-12-18T01:26:30.994Z,102849.31
2022-12-18T01:31:36.037Z,102867.47
2022-12-18T01:36:41.760Z,102861.78
2022-12-18T01:42:01.735Z,102860.06
2022-12-18T01:47:06.212Z,102857.50
2022-12-18T01:52:09.409Z,102858.47
2022-12-18T01:57:12.565Z,102869.22
2022-12-18T02:02:17.917Z,102861.78
2022-12-18T02:07:30.804Z,102858.53
2022-12-18T02:12:44.441Z,102856.03
2022-12-18T02:17:53.913Z,102865.28
2022-12-18T02:23:16.568Z,102865.63
2022-12-18T02:28:25.342Z,102844.16
2022-12-18T02:33:32.207Z,102850.63
2022-12-18T02:38:36.940Z,102818.16
2022-12-18T02:43:55.671Z,102851.00
2022-12-18T02:49:08.058Z,102843.72
2022-12-18T02:54:19.976Z,102859.03
2022-12-18T02:59:33.035Z,102852.56
2022-12-18T03:04:41.937Z,102821.56
2022-12-18T03:09:52.271Z,102816.56
2022-12-18T03:15:04.027Z,102825.34
2022-12-18T03:20:12.219Z,102815.53
2022-12-18T03:25:19.184Z,102815.84
2022-12-18T03:30:24.497Z,102803.44
2022-12-18T03:35:32.748Z,102803.53
2022-12-18T03:40:46.922Z,102803.13
2022-12-18T03:45:56.697Z,102795.78
2022-12-18T03:51:07.168Z,102781.13
2022-12-18T03:56:12.982Z,102778.25
2022-12-18T04:01:22.086Z,102783.25
2022-12-18T04:06:25.718Z,102774.06
2022-12-18T04:11:29.028Z,102775.59
2022-12-18T04:16:33.500Z,102771.69
2022-12-18T04:21:39.527Z,102763.53
2022-12-18T04:26:42.997Z,102772.94
2022-12-18T04:31:54.134Z,102791.06
2022-12-18T04:36:57.803Z,102793.91
2022-12-18T04:42:02.167Z,102801.59
2022-12-18T04:47:08.651Z,102806.31
2022-12-18T04:52:11.713Z,102807.06
2022-12-18T04:57:14.842Z,102804.28
2022-12-18T05:02:19.342Z,102813.63
2022-12-18T05:07:22.473Z,102792.31
2022-12-18T05:12:26.887Z,102795.47
2022-12-18T05:17:31.241Z,102791.88
2022-12-18T05:22:34.267Z,102797.94
2022-12-18T05:27:37.403Z,102793.13
2022-12-18T05:32:42.436Z,102801.31
2022-12-18T05:37:45.482Z,102795.69
2022-12-18T05:42:48.405Z,102792.72
2022-12-18T05:47:52.770Z,102776.81
2022-12-18T05:52:56.099Z,102765.03
2022-12-18T05:57:59.287Z,102776.72
2022-12-18T06:03:04.418Z,102765.69
2022-12-18T06:08:09.012Z,102779.09
2022-12-18T06:13:12.018Z,102777.97
2022-12-18T06:18:16.571Z,102778.84
2022-12-18T06:23:19.671Z,102768.44
2022-12-18T06:28:22.956Z,102742.31
2022-12-18T06:33:29.034Z,102751.81
2022-12-18T06:38:32.984Z,102744.31
2022-12-18T06:43:36.152Z,102749.03
2022-12-18T06:48:40.791Z,102730.09
2022-12-18T06:53:43.882Z,102746.03
2022-12-18T06:58:47.007Z,102739.09
2022-12-18T07:03:54.665Z,102731.13
2022-12-18T07:08:57.876Z,102727.16
2022-12-18T07:14:00.896Z,102733.69
2022-12-18T07:19:05.782Z,102714.22
2022-12-18T07:24:09.527Z,102704.66
2022-12-18T07:29:12.459Z,102692.84
2022-12-18T07:34:26.312Z,102659.69
2022-12-18T07:39:45.205Z,102614.59
2022-12-18T07:44:48.557Z,102643.25
2022-12-18T07:49:53.077Z,102632.59
2022-12-18T07:54:56.703Z,102649.38
2022-12-18T08:00:00.385Z,102662.47
2022-12-18T08:05:05.310Z,102669.97
2022-12-18T08:10:10.776Z,102680.59
2022-12-18T08:15:13.786Z,102676.97
2022-12-18T08:20:19.383Z,102672.78
2022-12-18T08:25:22.524Z,102647.59
2022-12-18T08:30:25.604Z,102633.47
2022-12-18T08:35:35.866Z,102621.00
2022-12-18T08:40:40.282Z,102632.47
2022-12-18T08:45:43.618Z,102634.78
2022-12-18T08:50:57.781Z,102637.69
2022-12-18T08:56:01.198Z,102642.03
2022-12-18T09:01:05.049Z,102648.03
2022-12-18T09:06:10.301Z,102673.03
2022-12-18T09:11:16.429Z,102685.88
2022-12-18T09:16:20.682Z,102682.75
2022-12-18T09:21:25.121Z,102659.94
2022-12-18T09:26:29.079Z,102636.44
2022-12-18T09:31:32.275Z,102623.28
2022-12-18T09:36:36.900Z,102625.22
2022-12-18T09:41:48.409Z,102613.16
2022-12-18T09:46:57.885Z,102605.16
2022-12-18T09:52:07.278Z,102613.63
2022-12-18T09:57:21.215Z,102606.13
2022-12-18T10:02:27.637Z,102631.34
2022-12-18T10:07:42.236Z,102626.56
2022-12-18T10:12:59.528Z,102623.09
2022-12-18T10:18:21.700Z,102615.19
2022-12-18T10:23:30.992Z,102595.75
2022-12-18T10:28:40.150Z,102593.72
2022-12-18T10:33:43.462Z,102566.50
2022-12-18T10:38:47.897Z,102549.75
2022-12-18T10:44:10.882Z,102554.34
2022-12-18T10:49:28.886Z,102546.41
2022-12-18T10:54:35.769Z,102542.00
2022-12-18T10:59:53.141Z,102528.00
2022-12-18T11:04:56.489Z,102547.63
2022-12-18T11:10:04.077Z,102539.31
2022-12-18T11:15:09.665Z,102528.03
2022-12-18T11:20:25.994Z,102523.78
2022-12-18T11:25:32.905Z,102526.81
2022-12-18T11:30:38.590Z,102538.59
2022-12-18T11:35:49.518Z,102513.00
2022-12-18T11:41:01.129Z,102521.31
2022-12-18T11:46:11.522Z,102495.34
2022-12-18T11:51:28.318Z,102505.91
2022-12-18T11:56:37.275Z,102491.63
2022-12-18T12:01:51.004Z,102441.97
2022-12-18T12:07:04.810Z,102456.63
2022-12-18T12:12:25.798Z,102454.41
2022-12-18T12:17:38.876Z,102433.44
2022-12-18T12:22:53.202Z,102425.25
2022-12-18T12:28:15.741Z,102429.25
2022-12-18T12:33:35.523Z,102405.88
2022-12-18T12:38:49.777Z,102407.78
2022-12-18T12:43:59.852Z,102390.50
2022-12-18T12:49:10.787Z,102400.72
2022-12-18T12:54:19.984Z,102377.28
2022-12-18T12:59:32.104Z,102375.03
2022-12-18T13:04:42.390Z,102375.69
2022-12-18T13:10:17.199Z,102387.91
2022-12-18T13:15:26.015Z,102379.59
2022-12-18T13:20:38.244Z,102374.44
2022-12-18T13:25:41.434Z,102372.63
2022-12-18T13:30:52.605Z,102351.66
2022-12-18T13:36:04.844Z,102350.38
2022-12-18T13:41:25.209Z,102356.88
2022-12-18T13:46:32.396Z,102347.16
2022-12-18T13:51:37.441Z,102334.06
2022-12-18T13:56:46.237Z,102326.75
2022-12-18T14:01:55.332Z,102333.47
2022-12-18T14:07:04.112Z,102328.91
2022-12-18T14:12:26.562Z,102315.53
2022-12-18T14:17:33.648Z,102314.69
2022-12-18T14:22:37.908Z,102317.25
2022-12-18T14:27:45.638Z,102309.00
2022-12-18T14:33:06.987Z,102307.19
2022-12-18T14:38:24.946Z,102296.69
2022-12-18T14:43:29.725Z,102308.13
2022-12-18T14:48:50.420Z,102296.44
2022-12-18T14:53:57.872Z,102295.38
2022-12-18T14:59:02.480Z,102284.88
2022-12-18T15:04:25.249Z,102262.41
2022-12-18T15:09:30.941Z,102272.00
2022-12-18T15:14:41.480Z,102258.44
2022-12-18T15:19:48.022Z,102268.16
2022-12-18T15:24:51.649Z,102244.75
2022-12-18T15:30:24.823Z,102241.28
2022-12-18T15:35:29.794Z,102241.56
2022-12-18T15:40:36.328Z,102246.59
2022-12-18T15:45:39.572Z,102249.91
2022-12-18T15:50:43.980Z,102240.84
2022-12-18T15:56:05.418Z,102227.81
2022-12-18T16:01:14.141Z,102218.69
2022-12-18T16:06:20.508Z,102211.72
2022-12-18T16:11:39.805Z,102205.97
2022-12-18T16:16:43.063Z,102190.81
2022-12-18T16:21:49.418Z,102186.72
2022-12-18T16:26:54.079Z,102197.78
2022-12-18T16:32:16.117Z,102186.31
2022-12-18T16:37:20.676Z,102180.53
2022-12-18T16:42:30.382Z,102172.63
2022-12-18T16:47:33.723Z,102174.59
2022-12-18T16:52:41.310Z,102163.41
2022-12-18T16:57:47.592Z,102146.41
2022-12-18T17:02:50.896Z,102143.03
2022-12-18T17:07:55.885Z,102156.91
2022-12-18T17:13:00.088Z,102157.09
2022-12-18T17:18:03.676Z,102162.25
2022-12-18T17:23:21.319Z,102138.38
2022-12-18T17:28:26.408Z,102152.69
2022-12-18T17:33:32.989Z,102142.38
2022-12-18T17:38:42.295Z,102151.69
2022-12-18T17:43:54.681Z,102156.97
2022-12-18T17:48:58.512Z,102157.75
2022-12-18T17:54:03.058Z,102141.94
2022-12-18T17:59:07.090Z,102139.38
2022-12-18T18:04:10.409Z,102145.66
2022-12-18T18:09:16.801Z,102134.22
2022-12-18T18:14:21.662Z,102138.50
2022-12-18T18:19:26.381Z,102125.59
2022-12-18T18:24:31.012Z,102110.88
2022-12-18T18:29:34.607Z,102130.78
2022-12-18T18:34:41.925Z,102123.34
2022-12-18T18:39:46.490Z,102131.84
2022-12-18T18:44:52.512Z,102137.63
2022-12-18T18:49:56.852Z,102130.97
2022-12-18T18:55:13.394Z,102134.00
2022-12-18T19:00:18.547Z,102130.34
2022-12-18T19:05:22.986Z,102126.69
2022-12-18T19:10:27.742Z,102119.38
2022-12-18T19:15:34.447Z,102110.88
2022-12-18T19:20:38.021Z,102109.31
2022-12-18T19:26:10.337Z,102116.34
2022-12-18T19:31:24.824Z,102118.44
2022-12-18T19:36:31.186Z,102123.63
2022-12-18T19:41:35.697Z,102119.50
2022-12-18T19:46:41.799Z,102120.13
2022-12-18T19:51:45.562Z,102105.09
2022-12-18T19:56:55.918Z,102132.13
2022-12-18T20:02:05.075Z,102127.16
2022-12-18T20:07:08.871Z,102129.25
2022-12-18T20:12:13.418Z,102122.28
2022-12-18T20:17:16.629Z,102130.34
2022-12-18T20:22:20.201Z,102119.41
2022-12-18T20:27:24.940Z,102099.78
2022-12-18T20:32:31.488Z,102084.88
2022-12-18T20:37:39.320Z,102094.31
2022-12-18T20:42:47.505Z,102089.31
2022-12-18T20:47:50.667Z,102084.16
2022-12-18T20:52:53.805Z,102072.28
2022-12-18T20:57:59.246Z,102058.16
2022-12-18T21:03:02.549Z,102047.97
2022-12-18T21:08:06.407Z,102041.28
2022-12-18T21:13:12.328Z,102034.28
2022-12-18T21:18:16.978Z,102040.97
2022-12-18T21:23:20.027Z,102033.66
2022-12-18T21:28:24.578Z,102032.00
2022-12-18T21:33:27.793Z,102023.63
2022-12-18T21:38:33.257Z,102009.06
2022-12-18T21:43:57.042Z,102005.25
2022-12-18T21:49:00.460Z,101990.50
2022-12-18T21:54:04.666Z,101986.25
2022-12-18T21:59:11.710Z,101963.75
2022-12-18T22:04:15.248Z,101959.50
2022-12-18T22:09:20.324Z,101952.50
2022-12-18T22:14:24.998Z,101949.47
2022-12-18T22:19:28.248Z,101930.28
2022-12-18T22:24:31.537Z,101921.78
2022-12-18T22:29:53.217Z,101898.41
2022-12-18T22:34:59.374Z,101913.41
2022-12-18T22:40:08.709Z,101901.69
2022-12-18T22:45:13.617Z,101869.03
2022-12-18T22:50:16.903Z,101894.50
2022-12-18T22:55:20.646Z,101890.69
2022-12-18T23:00:25.107Z,101876.09
2022-12-18T23:05:32.496Z,101850.50
2022-12-18T23:10:38.829Z,101856.44
2022-12-18T23:15:44.068Z,101857.16
2022-12-18T23:20:47.467Z,101839.69
2022-12-18T23:25:50.826Z,101847.09
2022-12-18T23:30:55.626Z,101820.03
2022-12-18T23:36:00.099Z,101805.09
2022-12-18T23:41:08.172Z,101803.09
2022-12-18T23:46:13.988Z,101793.38
2022-12-18T23:51:18.221Z,101793.03
2022-12-18T23:56:21.341Z,101784.78
